SBMQSBSN

Guest
Details From SBMQ - MACAPA
To SBSN - SANTAREM
Flight Number -
Tags generated
Created
Modified
Stats Distance 268 nm / 497 km
Max Altitude 0 ft / 0 m
Waypoints 2
Social Downloads 0
Likes 0
Share VATSIM

Download

Looking for another format? Having issues loading an existing format? Contact us
Advertisement - Login to hide

Notes

Basic altitude profile: - Ascent Rate: 500ft/min - Ascent Speed: 130kts - Cruise Altitude: 100ft - Cruise Speed: 184kts - Descent Rate: 500ft/min - Descent Speed: 150kts Options: - Use NATs: yes - Use PACOTS: yes - Use low airways: no - Use high airways: no

Route

SBMQ SBSN

ID Type Via Altitude Latitude Longitude Leg Dist Tot Dist Heading (true) Name
O SBMQ APT - 0 ft / 0 m 0.05064˚ -51.07216˚ - 0 nm - MACAPA
O SBSN APT - 0 ft / 0 m -2.42243˚ -54.79279˚ 268 nm 268 nm 236° / 236° SANTAREM

Altitude Profile

Advertisement - Login to hide

Weather


0- 5 10 15 20 25 30 35+ Temperature / ° C

Clouds and Precipitation
Forecast for 2018-05-21 18:00 UTC. Updated 2 hours ago

Ground ~20,000 ft ~40,000 ft Winds

SBMQ

Details ICAO SBMQ (MCP)
Name MACAPA
Region Brazil
Timezone America/Belem (UTC-3.0)
Stats Elevation 56 ft / 17 m (AMSL)
Location 0.050639° -51.072162°
Runways 1
Magnetic Variation 19.368° W

METAR

SBMQ 211800Z 08006KT 9999 FEW025 BKN070 30/24 Q1009 RETS

Decode

TAF

TAF SBMQ 211600Z 2118/2218 06008KT 9999 SCT020 TX34/2118Z TN24/2205Z BECMG 2121/2123 SCT017 BECMG 2205/2207 34005KT BECMG 2209/2210 01008KT BKN008 BECMG 2212/2213 BKN015 RMK PCW

Decode

Departure Runways

ID Width Length Bearing (true) Bearing (mag) Surface Threshold Offset Overrun Length
08 148 ft / 45 m 6,917 ft / 2,108 m 57.22° 76.59° Asphalt 0 ft / 0 m 219 ft / 67 m
26 148 ft / 45 m 6,917 ft / 2,108 m 237.22° 256.59° Asphalt 0 ft / 0 m 219 ft / 67 m

SBSN

Details ICAO SBSN (STM)
Name SANTAREM
Region Brazil
Timezone America/Santarem (UTC-3.0)
Stats Elevation 198 ft / 60 m (AMSL)
Location -2.422430° -54.792788°
Runways 1
Magnetic Variation 18.379° W

METAR

SBSN 211800Z 04006KT 9999 FEW023 29/24 Q1009

Decode

TAF

TAF SBSN 211600Z 2118/2218 08005KT 9999 SCT020 FEW025TCU TX30/2118Z TN23/2207Z BECMG 2207/2209 12005KT FEW015 BECMG 2211/2213 04008KT BECMG 2215/2217 06010KT SCT020 FEW025TCU RMK PCW

Decode

Destination Runways

ID Width Length Bearing (true) Bearing (mag) Surface Threshold Offset Overrun Length
10 148 ft / 45 m 7,873 ft / 2,400 m 80.69° 99.07° Asphalt 0 ft / 0 m 245 ft / 75 m
28 148 ft / 45 m 7,873 ft / 2,400 m 260.69° 279.07° Asphalt 0 ft / 0 m 202 ft / 62 m

Approach Navaids

Runway Type Ident Frequency Range Bearing (true) Bearing (mag) Slope Elevation
10 Localiser ISN 109.30 MHz 18 nm / 33 km 81.06° 99.43° - 198 ft / 60 m (AMSL)

Popular Alternatives